createdAt,value
2022-09-25T00:00:38.729Z,0
2022-09-25T00:05:38.694Z,0
2022-09-25T00:10:38.765Z,0
2022-09-25T00:15:38.701Z,0
2022-09-25T00:20:38.707Z,0
2022-09-25T00:25:38.702Z,0
2022-09-25T00:30:38.781Z,0
2022-09-25T00:35:38.706Z,0
2022-09-25T00:40:38.819Z,0
2022-09-25T00:45:38.693Z,0
2022-09-25T00:50:38.744Z,0
2022-09-25T00:55:38.690Z,0
2022-09-25T01:00:38.707Z,0
2022-09-25T01:05:38.677Z,0
2022-09-25T01:10:38.747Z,0
2022-09-25T01:15:38.703Z,0
2022-09-25T01:20:38.697Z,0
2022-09-25T01:25:38.711Z,0
2022-09-25T01:30:38.775Z,0
2022-09-25T01:35:38.679Z,0
2022-09-25T01:40:38.765Z,0
2022-09-25T01:45:38.757Z,0
2022-09-25T01:50:38.709Z,0
2022-09-25T01:55:38.667Z,0
2022-09-25T02:00:38.710Z,0
2022-09-25T02:05:38.681Z,0
2022-09-25T02:10:38.739Z,0
2022-09-25T02:15:38.703Z,0
2022-09-25T02:20:38.698Z,0
2022-09-25T02:25:38.706Z,0
2022-09-25T02:30:38.747Z,0
2022-09-25T02:35:38.668Z,0
2022-09-25T02:40:38.759Z,0
2022-09-25T02:45:38.704Z,0
2022-09-25T02:50:38.728Z,0
2022-09-25T02:55:38.657Z,0
2022-09-25T03:00:38.662Z,0
2022-09-25T03:05:38.689Z,0
2022-09-25T03:10:38.706Z,0
2022-09-25T03:15:38.674Z,0
2022-09-25T03:20:38.678Z,0
2022-09-25T03:25:38.661Z,0
2022-09-25T03:30:38.788Z,0
2022-09-25T03:35:38.663Z,0
2022-09-25T03:40:38.761Z,0
2022-09-25T03:45:38.640Z,0
2022-09-25T03:50:38.705Z,0
2022-09-25T03:55:38.639Z,0
2022-09-25T04:00:38.660Z,0
2022-09-25T04:05:38.673Z,0
2022-09-25T04:10:38.696Z,0
2022-09-25T04:15:38.676Z,0
2022-09-25T04:20:38.633Z,0
2022-09-25T04:25:38.680Z,0
2022-09-25T04:30:39.041Z,0
2022-09-25T04:35:38.916Z,0
2022-09-25T04:40:39.042Z,0
2022-09-25T04:45:38.886Z,0
2022-09-25T04:50:38.940Z,0
2022-09-25T04:55:38.910Z,0
2022-09-25T05:00:38.925Z,0
2022-09-25T05:05:38.890Z,0
2022-09-25T05:10:38.909Z,0
2022-09-25T05:15:38.920Z,0
2022-09-25T05:20:38.903Z,0
2022-09-25T05:25:38.893Z,2
2022-09-25T05:30:39.070Z,3
2022-09-25T05:35:38.898Z,8
2022-09-25T05:40:38.961Z,10
2022-09-25T05:45:38.906Z,11
2022-09-25T05:50:38.933Z,14
2022-09-25T05:55:38.893Z,18
2022-09-25T06:00:38.874Z,14
2022-09-25T06:05:38.895Z,15
2022-09-25T06:10:39.020Z,14
2022-09-25T06:15:38.907Z,14
2022-09-25T06:20:38.874Z,14
2022-09-25T06:25:38.870Z,15
2022-09-25T06:30:38.902Z,23
2022-09-25T06:35:38.888Z,22
2022-09-25T06:40:38.898Z,25
2022-09-25T06:45:38.903Z,34
2022-09-25T06:50:38.925Z,71
2022-09-25T06:55:38.887Z,115
2022-09-25T07:00:38.888Z,85
2022-09-25T07:05:38.873Z,181
2022-09-25T07:10:41.636Z,247
2022-09-25T07:15:38.913Z,305
2022-09-25T07:20:38.866Z,341
2022-09-25T07:25:38.888Z,246
2022-09-25T07:30:38.913Z,235
2022-09-25T07:35:38.888Z,333
2022-09-25T07:40:38.924Z,197
2022-09-25T07:45:38.882Z,222
2022-09-25T07:50:38.888Z,195
2022-09-25T07:55:38.892Z,185
2022-09-25T08:00:38.859Z,191
2022-09-25T08:05:38.881Z,187
2022-09-25T08:10:38.910Z,212
2022-09-25T08:15:38.918Z,191
2022-09-25T08:20:38.893Z,602
2022-09-25T08:25:38.874Z,183
2022-09-25T08:30:38.921Z,180
2022-09-25T08:35:38.841Z,630
2022-09-25T08:40:41.810Z,614
2022-09-25T08:45:38.889Z,259
2022-09-25T08:50:38.958Z,625
2022-09-25T08:55:38.893Z,792
2022-09-25T09:00:38.874Z,802
2022-09-25T09:05:38.850Z,816
2022-09-25T09:10:38.879Z,425
2022-09-25T09:15:38.891Z,189
2022-09-25T09:20:38.836Z,646
2022-09-25T09:25:38.845Z,163
2022-09-25T09:30:38.936Z,539
2022-09-25T09:35:38.855Z,377
2022-09-25T09:40:38.908Z,217
2022-09-25T09:45:38.836Z,435
2022-09-25T09:50:42.559Z,904
2022-09-25T09:55:38.836Z,437
2022-09-25T10:00:38.845Z,174
2022-09-25T10:05:38.839Z,129
2022-09-25T10:10:38.859Z,90
2022-09-25T10:15:38.868Z,107
2022-09-25T10:20:38.836Z,664
2022-09-25T10:25:38.864Z,858
2022-09-25T10:30:38.900Z,347
2022-09-25T10:35:39.088Z,228
2022-09-25T10:40:39.148Z,261
2022-09-25T10:45:39.077Z,860
2022-09-25T10:50:39.104Z,210
2022-09-25T10:55:39.079Z,820
2022-09-25T11:00:39.055Z,626
2022-09-25T11:05:39.090Z,150
2022-09-25T11:10:39.079Z,207
2022-09-25T11:15:39.102Z,286
2022-09-25T11:20:39.106Z,722
2022-09-25T11:25:39.058Z,515
2022-09-25T11:30:39.137Z,774
2022-09-25T11:35:39.057Z,835
2022-09-25T11:40:39.138Z,445
2022-09-25T11:45:39.048Z,252
2022-09-25T11:50:39.115Z,596
2022-09-25T11:55:43.186Z,862
2022-09-25T12:00:39.059Z,883
2022-09-25T12:05:39.074Z,110
2022-09-25T12:10:39.092Z,120
2022-09-25T12:15:39.081Z,119
2022-09-25T12:20:39.044Z,114
2022-09-25T12:25:39.085Z,124
2022-09-25T12:30:39.135Z,127
2022-09-25T12:35:39.056Z,178
2022-09-25T12:40:39.195Z,516
2022-09-25T12:45:39.101Z,130
2022-09-25T12:50:39.096Z,165
2022-09-25T12:55:39.056Z,229
2022-09-25T13:00:39.056Z,181
2022-09-25T13:05:39.052Z,120
2022-09-25T13:10:39.092Z,174
2022-09-25T13:15:39.049Z,574
2022-09-25T13:20:39.070Z,141
2022-09-25T13:25:39.071Z,99
2022-09-25T13:30:39.121Z,101
2022-09-25T13:35:39.041Z,72
2022-09-25T13:40:39.139Z,60
2022-09-25T13:45:39.123Z,50
2022-09-25T13:50:39.069Z,48
2022-09-25T13:55:39.068Z,51
2022-09-25T14:00:39.056Z,56
2022-09-25T14:05:39.034Z,67
2022-09-25T14:10:39.106Z,92
2022-09-25T14:15:39.077Z,232
2022-09-25T14:20:39.080Z,358
2022-09-25T14:25:39.063Z,480
2022-09-25T14:30:39.108Z,404
2022-09-25T14:35:39.030Z,264
2022-09-25T14:40:39.056Z,221
2022-09-25T14:45:39.076Z,170
2022-09-25T14:50:39.084Z,118
2022-09-25T14:55:39.038Z,97
2022-09-25T15:00:39.054Z,109
2022-09-25T15:05:39.003Z,143
2022-09-25T15:10:39.140Z,137
2022-09-25T15:15:39.059Z,134
2022-09-25T15:20:39.053Z,114
2022-09-25T15:25:39.047Z,91
2022-09-25T15:30:39.048Z,70
2022-09-25T15:35:39.031Z,52
2022-09-25T15:40:39.129Z,33
2022-09-25T15:45:39.096Z,25
2022-09-25T15:50:39.169Z,25
2022-09-25T15:55:39.049Z,27
2022-09-25T16:00:39.062Z,39
2022-09-25T16:05:39.009Z,41
2022-09-25T16:10:39.052Z,41
2022-09-25T16:15:39.106Z,35
2022-09-25T16:20:39.054Z,20
2022-09-25T16:25:39.037Z,13
2022-09-25T16:30:39.076Z,15
2022-09-25T16:35:57.775Z,13
2022-09-25T16:40:39.087Z,10
2022-09-25T16:45:39.053Z,12
2022-09-25T16:50:39.060Z,13
2022-09-25T16:55:39.050Z,10
2022-09-25T17:00:39.060Z,7
2022-09-25T17:05:39.037Z,2
2022-09-25T17:10:39.135Z,0
2022-09-25T17:15:39.081Z,0
2022-09-25T17:20:39.038Z,0
2022-09-25T17:25:39.053Z,0
2022-09-25T17:30:39.077Z,0
2022-09-25T17:35:39.044Z,0
2022-09-25T17:40:39.113Z,0
2022-09-25T17:45:39.013Z,0
2022-09-25T17:50:39.043Z,0
2022-09-25T17:55:38.986Z,0
2022-09-25T18:00:39.009Z,0
2022-09-25T18:05:39.014Z,0
2022-09-25T18:10:39.035Z,0
2022-09-25T18:15:39.028Z,0
2022-09-25T18:20:39.023Z,0
2022-09-25T18:25:39.047Z,0
2022-09-25T18:30:39.133Z,0
2022-09-25T18:35:39.037Z,0
2022-09-25T18:40:39.043Z,0
2022-09-25T18:45:39.013Z,0
2022-09-25T18:50:39.044Z,0
2022-09-25T18:55:38.995Z,0
2022-09-25T19:00:39.036Z,0
2022-09-25T19:05:39.028Z,0
2022-09-25T19:10:39.056Z,0
2022-09-25T19:15:39.019Z,0
2022-09-25T19:20:38.992Z,0
2022-09-25T19:25:38.999Z,0
2022-09-25T19:30:39.129Z,0
2022-09-25T19:35:38.991Z,0
2022-09-25T19:40:39.092Z,0
2022-09-25T19:45:39.015Z,0
2022-09-25T19:50:39.027Z,0
2022-09-25T19:55:39.001Z,0
2022-09-25T20:00:38.988Z,0
2022-09-25T20:05:38.996Z,0
2022-09-25T20:10:39.004Z,0
2022-09-25T20:15:39.069Z,0
2022-09-25T20:20:38.999Z,0
2022-09-25T20:25:39.013Z,0
2022-09-25T20:30:39.097Z,0
2022-09-25T20:35:38.983Z,0
2022-09-25T20:40:39.017Z,0
2022-09-25T20:45:39.140Z,0
2022-09-25T20:50:38.983Z,0
2022-09-25T20:55:39.013Z,0
2022-09-25T21:00:39.006Z,0
2022-09-25T21:05:38.986Z,0
2022-09-25T21:10:39.123Z,0
2022-09-25T21:15:38.998Z,0
2022-09-25T21:20:38.988Z,0
2022-09-25T21:25:39.006Z,0
2022-09-25T21:30:39.077Z,0
2022-09-25T21:35:38.975Z,0
2022-09-25T21:40:38.994Z,0
2022-09-25T21:45:39.156Z,0
2022-09-25T21:50:39.096Z,0
2022-09-25T21:55:38.984Z,0
2022-09-25T22:00:38.980Z,0
2022-09-25T22:05:38.956Z,0
2022-09-25T22:10:38.971Z,0
2022-09-25T22:15:38.956Z,0
2022-09-25T22:20:38.978Z,0
2022-09-25T22:25:38.973Z,0
2022-09-25T22:30:39.068Z,0
2022-09-25T22:35:38.986Z,0
2022-09-25T22:40:39.024Z,0
2022-09-25T22:45:39.026Z,0
2022-09-25T22:50:38.998Z,0
2022-09-25T22:55:38.950Z,0
2022-09-25T23:00:38.960Z,0
2022-09-25T23:05:39.030Z,0
2022-09-25T23:11:02.914Z,0
2022-09-25T23:15:38.949Z,0
2022-09-25T23:20:38.973Z,0
2022-09-25T23:25:38.980Z,0
2022-09-25T23:30:38.982Z,0
2022-09-25T23:35:38.937Z,0
2022-09-25T23:40:39.045Z,0
2022-09-25T23:45:39.009Z,0
2022-09-25T23:50:38.950Z,0
2022-09-25T23:55:38.968Z,0
